KOGS

Ogdensburg International Airport

Ogdensburg, New York, USA
METAR KOGS 191055Z AUTO 02004KT 10SM OVC034 14/12 A2999 RMK AO2 T01410120
Observed Flight Rules
Sep-19 @ 10:55 UTC (9 minutes ago) Visual Flight Rules
Wind Visibility Clouds
20° at 4 knots 10 miles
  • Overcast at 3,400' AGL
Temperatures Readings
Current 14°C / 57°F
Dewpoint 12°C / 54°F
Humidity 88%
Altimeter 29.99" Hg
Pressure 1016 hPa
Elevation 91
METAR KOGS 191055Z AUTO 02004KT 10SM OVC034 14/12 A2999 RMK AO2 T01410120
Observed Flight Rules
Sep-19 @ 10:55 UTC
(9 minutes ago)
VFR
Wind Visibility
20° at 4 knots 10 miles
Clouds
  • Overcast at 3,400' AGL
Temperature Dewpoint
14°C / 57°F 12°C / 54°F
Humidity Altimeter Pressure
88% 29.99" Hg 1016 hPa